Time;durP1;ratioP1;P1;durP2;ratioP2;P2;SDS_P1;SDS_P2;PMS_P1;PMS_P2;Temp;Humidity;BMP_temperature;BMP_pressure;BME280_temperature;BME280_humidity;BME280_pressure;Samples;Min_cycle;Max_cycle;Signal;HPM_P1;HPM_P2
2022/04/30 00:00:01;;;;;;;23.70;12.10;;;;;;;2.50;79.29;100270.34;103476;1303;24291;-29
2022/04/30 00:02:29;;;;;;;49.40;22.20;;;;;;;2.54;80.34;100272.11;103580;1303;24211;-28
2022/04/30 00:04:59;;;;;;;41.20;19.00;;;;;;;2.57;80.37;100268.84;103591;1303;24243;-25
2022/04/30 00:07:28;;;;;;;44.10;20.70;;;;;;;2.58;78.28;100265.27;103565;1303;25156;-27
2022/04/30 00:09:57;;;;;;;35.60;18.20;;;;;;;2.59;77.85;100266.77;103571;1303;23637;-28
2022/04/30 00:12:26;;;;;;;38.80;15.80;;;;;;;2.58;76.81;100267.71;103578;1303;25089;-25
2022/04/30 00:14:55;;;;;;;41.10;15.30;;;;;;;2.52;76.59;100269.43;103652;1303;23945;-25
2022/04/30 00:17:24;;;;;;;32.20;16.00;;;;;;;2.49;75.76;100269.70;103543;1303;22792;-29
2022/04/30 00:19:53;;;;;;;40.40;15.30;;;;;;;2.45;75.66;100270.18;103464;1303;24316;-25
2022/04/30 00:22:22;;;;;;;60.40;22.10;;;;;;;2.43;76.86;100272.34;103565;1303;24234;-28
2022/04/30 00:24:51;;;;;;;43.70;16.40;;;;;;;2.40;75.50;100269.06;103566;1303;24211;-25
2022/04/30 00:27:20;;;;;;;45.60;17.20;;;;;;;2.29;77.55;100266.53;103551;1303;25012;-29
2022/04/30 00:29:49;;;;;;;43.20;18.40;;;;;;;2.21;81.11;100269.50;103619;1303;23903;-25
2022/04/30 00:32:18;;;;;;;43.60;18.40;;;;;;;2.14;80.78;100271.96;103579;1303;23808;-29
2022/04/30 00:34:47;;;;;;;61.80;19.00;;;;;;;2.07;78.45;100274.26;103558;1303;24249;-28
2022/04/30 00:37:16;;;;;;;60.40;19.60;;;;;;;2.03;79.34;100275.60;103555;1302;23757;-25
2022/04/30 00:39:45;;;;;;;43.40;17.60;;;;;;;1.98;79.72;100276.20;103591;1303;23831;-28
2022/04/30 00:42:14;;;;;;;48.10;17.00;;;;;;;1.95;79.73;100277.00;103607;1302;23606;-29
2022/04/30 00:44:43;;;;;;;40.00;13.90;;;;;;;1.91;80.25;100275.69;103576;1303;22606;-25
2022/04/30 00:47:16;;;;;;;27.10;9.90;;;;;;;1.92;84.40;100275.31;103591;1303;22498;-28
2022/04/30 00:49:46;;;;;;;37.30;14.30;;;;;;;1.97;83.77;100275.23;103645;1303;24252;-26
2022/04/30 00:52:16;;;;;;;52.40;18.60;;;;;;;1.99;81.31;100269.82;103577;1303;24127;-25
2022/04/30 00:54:49;;;;;;;41.10;11.20;;;;;;;2.01;81.02;100267.85;103476;1302;25411;-25
2022/04/30 00:57:21;;;;;;;37.80;14.40;;;;;;;2.00;82.12;100264.05;103584;1303;25131;-29
2022/04/30 00:59:53;;;;;;;42.80;15.00;;;;;;;1.99;83.57;100264.86;103564;1303;24291;-27
2022/04/30 01:02:22;;;;;;;31.00;10.10;;;;;;;1.98;85.53;100265.80;103548;1303;24240;-25
2022/04/30 01:04:52;;;;;;;53.30;16.80;;;;;;;2.00;84.35;100265.13;103572;1303;23613;-28
2022/04/30 01:07:21;;;;;;;43.70;15.80;;;;;;;1.98;82.09;100263.16;103515;1303;23901;-29
2022/04/30 01:09:51;;;;;;;41.50;15.40;;;;;;;1.96;82.26;100260.81;103574;1302;23603;-28
2022/04/30 01:12:20;;;;;;;44.70;17.70;;;;;;;1.95;80.88;100255.98;103570;1303;23596;-29
2022/04/30 01:14:51;;;;;;;41.60;14.80;;;;;;;1.92;80.82;100257.66;103275;1303;23638;-26
2022/04/30 01:17:20;;;;;;;36.20;13.60;;;;;;;1.87;80.79;100256.61;103530;1303;23923;-31
2022/04/30 01:19:49;;;;;;;36.00;14.20;;;;;;;1.82;81.90;100256.27;103487;1303;24253;-27
2022/04/30 01:22:20;;;;;;;35.20;13.30;;;;;;;1.79;83.10;100256.83;103588;1302;23897;-30
2022/04/30 01:24:49;;;;;;;16.50;8.80;;;;;;;1.75;83.73;100250.77;103541;1303;24967;-28
2022/04/30 01:27:18;;;;;;;33.90;12.50;;;;;;;1.75;84.45;100251.89;103532;1303;23863;-25
2022/04/30 01:29:47;;;;;;;41.10;13.20;;;;;;;1.75;83.74;100256.79;103477;1303;24003;-28
2022/04/30 01:37:23;;;;;;;23.80;11.20;;;;;;;1.86;87.81;100251.01;103554;1303;22924;-27
2022/04/30 01:39:57;;;;;;;26.30;12.40;;;;;;;1.87;87.33;100252.39;103552;1303;24977;-27
2022/04/30 01:42:29;;;;;;;17.90;7.70;;;;;;;1.81;86.02;100251.73;103565;1303;23596;-30
2022/04/30 01:44:58;;;;;;;22.40;9.00;;;;;;;1.77;82.91;100250.28;103592;1303;24017;-28
2022/04/30 01:47:27;;;;;;;22.50;10.70;;;;;;;1.71;82.54;100253.45;103580;1303;25060;-28
2022/04/30 01:49:56;;;;;;;25.20;10.40;;;;;;;1.63;82.24;100258.78;103363;1303;22632;-28
2022/04/30 01:52:25;;;;;;;32.00;13.90;;;;;;;1.56;82.32;100252.81;103599;1303;22507;-25
2022/04/30 01:54:54;;;;;;;35.70;12.40;;;;;;;1.51;82.40;100250.52;103555;1303;25261;-31
2022/04/30 01:57:25;;;;;;;26.20;13.70;;;;;;;1.51;83.79;100250.00;103604;1303;22892;-24
2022/04/30 01:59:55;;;;;;;29.80;13.10;;;;;;;1.51;83.64;100249.85;103578;1303;25023;-28
2022/04/30 02:02:27;;;;;;;25.00;12.50;;;;;;;1.51;83.74;100249.52;103616;1303;23620;-30
2022/04/30 02:04:59;;;;;;;23.10;10.00;;;;;;;1.50;85.09;100249.02;103299;1303;23603;-25
2022/04/30 02:07:28;;;;;;;33.70;12.70;;;;;;;1.51;88.08;100244.59;103555;1303;24249;-25
2022/04/30 02:09:58;;;;;;;27.80;12.10;;;;;;;1.48;86.57;100242.35;103600;1303;22724;-27
2022/04/30 02:12:29;;;;;;;32.80;12.80;;;;;;;1.45;85.78;100246.10;103373;1303;22501;-31
2022/04/30 02:14:58;;;;;;;26.20;11.50;;;;;;;1.42;85.54;100239.45;103523;1303;25270;-26
2022/04/30 02:17:28;;;;;;;30.20;12.10;;;;;;;1.43;84.72;100237.59;103555;1303;24993;-27
2022/04/30 02:22:31;;;;;;;;;;;;;;;1.47;85.28;100236.23;103543;1303;23609;-25
2022/04/30 02:25:00;;;;;;;20.60;11.80;;;;;;;1.45;84.46;100237.23;103618;1303;23885;-26
2022/04/30 02:27:29;;;;;;;30.00;17.60;;;;;;;1.44;85.71;100233.44;103603;1303;24017;-26
2022/04/30 02:29:58;;;;;;;32.00;17.00;;;;;;;1.45;83.45;100230.56;103386;1303;24364;-26
2022/04/30 02:32:27;;;;;;;35.30;14.30;;;;;;;1.47;82.47;100232.38;103521;1303;22963;-28
2022/04/30 02:34:56;;;;;;;29.20;12.30;;;;;;;1.46;84.67;100234.66;103530;1303;23848;-26
2022/04/30 02:37:25;;;;;;;41.10;12.40;;;;;;;1.50;84.42;100231.95;103504;1303;24285;-29
2022/04/30 02:39:54;;;;;;;26.70;12.00;;;;;;;1.51;82.97;100229.52;103528;1303;22514;-28
2022/04/30 02:42:23;;;;;;;23.20;9.80;;;;;;;1.49;82.34;100227.77;103568;1302;22620;-25
2022/04/30 02:44:52;;;;;;;21.30;9.90;;;;;;;1.44;82.38;100227.65;103562;1303;22655;-25
2022/04/30 02:47:22;;;;;;;26.00;9.70;;;;;;;1.41;82.88;100227.31;103542;1303;24367;-28
2022/04/30 02:49:50;;;;;;;27.20;11.50;;;;;;;1.42;82.92;100224.63;103525;1303;23936;-23
2022/04/30 02:52:20;;;;;;;21.70;10.40;;;;;;;1.37;82.58;100221.95;103570;1303;25063;-26
2022/04/30 02:54:49;;;;;;;24.30;11.00;;;;;;;1.34;82.46;100217.44;103519;1303;23590;-28
2022/04/30 02:57:18;;;;;;;27.60;10.90;;;;;;;1.29;83.00;100217.27;103591;1303;22506;-29
2022/04/30 03:02:21;;;;;;;13.30;7.70;;;;;;;1.31;85.81;100215.95;103566;1303;23616;-26
2022/04/30 03:04:51;;;;;;;18.20;8.80;;;;;;;1.34;88.85;100215.27;103497;1303;22640;-28
2022/04/30 03:07:21;;;;;;;22.60;11.90;;;;;;;1.36;87.87;100215.00;103560;1303;22591;-29
2022/04/30 03:09:50;;;;;;;13.20;7.90;;;;;;;1.38;87.02;100216.60;103398;1303;23599;-25
2022/04/30 03:12:19;;;;;;;24.80;10.00;;;;;;;1.38;86.79;100212.20;103555;1303;22755;-29
2022/04/30 03:14:48;;;;;;;24.50;9.90;;;;;;;1.37;85.10;100212.06;103570;1303;23805;-25
2022/04/30 03:22:22;;;;;;;24.20;10.50;;;;;;;1.38;84.61;100201.79;103558;1303;24976;-28
2022/04/30 03:24:51;;;;;;;14.70;7.30;;;;;;;1.38;83.86;100206.18;103449;1303;22605;-25
2022/04/30 03:27:20;;;;;;;15.20;7.80;;;;;;;1.37;82.96;100204.86;103629;1302;23749;-29
2022/04/30 03:29:49;;;;;;;17.70;9.50;;;;;;;1.32;83.41;100201.55;103563;1303;23905;-25
2022/04/30 03:32:20;;;;;;;15.30;6.90;;;;;;;1.35;84.66;100203.23;103532;1303;24211;-25
2022/04/30 03:34:49;;;;;;;12.30;4.90;;;;;;;1.49;86.07;100204.10;103584;1303;24410;-27
2022/04/30 03:37:18;;;;;;;18.30;9.00;;;;;;;1.62;84.90;100201.66;103578;1303;22511;-31
2022/04/30 03:39:47;;;;;;;19.10;10.10;;;;;;;1.72;84.03;100195.08;103531;1303;22591;-25
2022/04/30 03:42:16;;;;;;;17.40;7.40;;;;;;;1.86;84.08;100190.67;103560;1303;24418;-25
2022/04/30 03:44:45;;;;;;;20.80;8.90;;;;;;;2.06;84.51;100191.17;103571;1303;25158;-26
2022/04/30 03:47:14;;;;;;;12.60;8.20;;;;;;;2.25;83.70;100192.97;103554;1303;22505;-30
2022/04/30 03:49:43;;;;;;;22.80;9.50;;;;;;;2.30;83.07;100190.65;103565;1303;22883;-26
2022/04/30 03:52:12;;;;;;;16.40;9.10;;;;;;;2.22;83.78;100188.65;103551;1302;25112;-26
2022/04/30 03:54:41;;;;;;;15.30;7.90;;;;;;;2.32;84.49;100191.20;103600;1303;22510;-25
2022/04/30 03:57:10;;;;;;;18.00;9.40;;;;;;;2.38;84.92;100189.52;103562;1303;23609;-28
2022/04/30 03:59:39;;;;;;;22.30;9.40;;;;;;;2.41;85.62;100186.55;103528;1303;25086;-25
2022/04/30 04:02:08;;;;;;;14.80;7.50;;;;;;;2.45;84.71;100188.67;103583;1303;24237;-28
2022/04/30 04:04:37;;;;;;;15.70;8.10;;;;;;;2.46;86.22;100189.37;103555;1303;24971;-29
2022/04/30 04:07:06;;;;;;;15.80;9.30;;;;;;;2.43;86.93;100190.69;103532;1302;24321;-28
2022/04/30 04:09:35;;;;;;;13.30;6.60;;;;;;;2.44;86.72;100188.98;103537;1303;25076;-25
2022/04/30 04:12:05;;;;;;;19.30;9.00;;;;;;;2.56;86.21;100193.45;103571;1303;24344;-25
2022/04/30 04:19:39;;;;;;;15.60;8.90;;;;;;;2.66;83.48;100193.70;103532;1303;22758;-27
2022/04/30 04:22:08;;;;;;;16.30;9.10;;;;;;;2.66;84.25;100195.45;103534;1303;23940;-29
2022/04/30 04:27:09;;;;;;;30.10;10.10;;;;;;;2.78;86.08;100201.20;103541;1302;24003;-23
2022/04/30 04:29:38;;;;;;;19.30;11.50;;;;;;;2.89;84.65;100201.56;103532;1303;24211;-24
2022/04/30 04:32:07;;;;;;;17.40;9.40;;;;;;;2.86;85.08;100202.71;103563;1303;23607;-25
2022/04/30 04:34:36;;;;;;;29.00;9.10;;;;;;;2.92;85.33;100205.50;103532;1303;24986;-25
2022/04/30 04:37:05;;;;;;;16.20;9.10;;;;;;;2.94;85.56;100203.23;103576;1303;25088;-30
2022/04/30 04:39:34;;;;;;;19.80;11.20;;;;;;;2.99;85.33;100210.02;103475;1303;23755;-29
2022/04/30 04:42:03;;;;;;;24.70;9.40;;;;;;;3.10;84.40;100210.23;103580;1301;22498;-25
2022/04/30 04:44:33;;;;;;;19.00;6.60;;;;;;;3.23;84.15;100211.04;103540;1303;22792;-28
2022/04/30 04:47:02;;;;;;;17.30;8.60;;;;;;;3.36;83.93;100209.13;103599;1303;23249;-29
2022/04/30 04:49:31;;;;;;;16.50;7.80;;;;;;;3.47;84.94;100203.16;103557;1303;25136;-28
2022/04/30 04:52:01;;;;;;;25.70;9.80;;;;;;;3.62;84.59;100203.63;103597;1303;24225;-28
2022/04/30 04:54:30;;;;;;;17.30;9.20;;;;;;;3.75;84.31;100202.72;103523;1303;23612;-31
2022/04/30 04:56:59;;;;;;;23.70;9.50;;;;;;;3.84;84.19;100202.34;103530;1303;24208;-29
2022/04/30 04:59:28;;;;;;;21.90;11.00;;;;;;;3.90;83.84;100204.21;103523;1303;23590;-28
2022/04/30 05:01:57;;;;;;;16.70;9.10;;;;;;;4.04;83.86;100205.16;103576;1303;23755;-25
2022/04/30 05:04:26;;;;;;;17.80;8.80;;;;;;;4.21;84.09;100202.05;103610;1301;24237;-29
2022/04/30 05:06:55;;;;;;;18.40;10.10;;;;;;;4.39;83.76;100206.09;103528;1303;23829;-26
2022/04/30 05:09:25;;;;;;;20.40;10.70;;;;;;;4.59;83.05;100205.25;103571;1303;24318;-25
2022/04/30 05:11:54;;;;;;;14.50;7.60;;;;;;;4.70;82.16;100202.83;103537;1303;23430;-28
2022/04/30 05:14:23;;;;;;;18.30;7.80;;;;;;;4.75;81.44;100206.77;103512;1302;22501;-28
2022/04/30 05:16:52;;;;;;;14.30;6.60;;;;;;;4.86;81.24;100207.20;103518;1303;24483;-29
2022/04/30 05:19:21;;;;;;;13.80;7.70;;;;;;;5.06;80.90;100208.01;103530;1303;22521;-28
2022/04/30 05:21:50;;;;;;;12.60;7.90;;;;;;;5.27;80.38;100204.68;103564;1303;23790;-28
2022/04/30 05:24:19;;;;;;;9.70;6.10;;;;;;;5.44;80.14;100205.94;103563;1303;22531;-28
2022/04/30 05:26:48;;;;;;;14.20;8.50;;;;;;;5.61;79.77;100205.45;103532;1303;23599;-30
2022/04/30 05:29:17;;;;;;;24.40;9.30;;;;;;;5.69;79.59;100207.13;103608;1303;23833;-25
2022/04/30 05:31:46;;;;;;;11.20;7.40;;;;;;;5.73;78.65;100199.63;103512;1303;24295;-25
2022/04/30 05:34:15;;;;;;;12.60;6.30;;;;;;;5.81;78.82;100204.55;103626;1303;22505;-29
2022/04/30 05:36:44;;;;;;;11.50;6.10;;;;;;;5.95;78.94;100204.09;103412;1303;25207;-25
2022/04/30 05:39:13;;;;;;;11.80;6.50;;;;;;;6.12;78.81;100204.45;103567;1303;24216;-29
2022/04/30 05:41:42;;;;;;;16.40;7.30;;;;;;;6.20;78.15;100208.85;103614;1303;23928;-28
2022/04/30 05:44:10;;;;;;;12.50;7.80;;;;;;;6.33;78.64;100207.38;103558;1303;23803;-28
2022/04/30 05:46:39;;;;;;;20.10;11.10;;;;;;;6.42;78.24;100209.89;103567;1302;24295;-30
2022/04/30 05:49:08;;;;;;;19.90;11.80;;;;;;;6.50;77.84;100210.92;103606;1303;23599;-25
2022/04/30 05:51:37;;;;;;;14.40;8.50;;;;;;;6.51;77.79;100211.83;103582;1303;23637;-25
2022/04/30 05:54:07;;;;;;;15.50;7.50;;;;;;;6.70;78.20;100217.15;103545;1303;23808;-25
2022/04/30 05:56:36;;;;;;;17.10;10.30;;;;;;;6.81;75.49;100216.55;103611;1303;23822;-25
2022/04/30 05:59:05;;;;;;;20.30;11.10;;;;;;;6.88;74.56;100220.55;103282;1303;23808;-28
2022/04/30 06:01:34;;;;;;;16.70;9.10;;;;;;;6.96;73.83;100217.20;103548;1302;23800;-29
2022/04/30 06:04:04;;;;;;;17.40;10.60;;;;;;;7.14;73.92;100222.02;103630;1303;22602;-25
2022/04/30 06:06:33;;;;;;;16.40;9.10;;;;;;;7.35;74.54;100217.91;103548;1303;24307;-25
2022/04/30 06:09:02;;;;;;;26.20;13.60;;;;;;;7.62;75.92;100218.70;103575;1303;22824;-25
2022/04/30 06:11:31;;;;;;;38.00;19.50;;;;;;;7.85;74.32;100212.29;103560;1303;23600;-25
2022/04/30 06:14:00;;;;;;;32.20;16.80;;;;;;;8.03;74.63;100213.95;103340;1303;24032;-25
2022/04/30 06:16:29;;;;;;;33.10;18.60;;;;;;;8.10;73.98;100212.27;103464;1303;23828;-29
2022/04/30 06:18:58;;;;;;;49.20;20.40;;;;;;;8.24;73.78;100213.88;103542;1303;23641;-25
2022/04/30 06:21:27;;;;;;;55.40;22.80;;;;;;;8.36;73.10;100210.95;103601;1302;23590;-29
2022/04/30 06:23:56;;;;;;;61.80;24.80;;;;;;;8.47;72.19;100211.08;103397;1303;25238;-29
2022/04/30 06:26:25;;;;;;;49.80;24.20;;;;;;;8.64;71.37;100214.16;103610;1303;24307;-29
2022/04/30 06:28:55;;;;;;;48.70;21.90;;;;;;;8.90;72.47;100216.17;103542;1302;24246;-29
2022/04/30 06:31:24;;;;;;;54.60;23.00;;;;;;;9.21;72.32;100213.23;103496;1303;24195;-29
2022/04/30 06:33:53;;;;;;;44.00;24.00;;;;;;;9.44;70.77;100210.77;103594;1303;25020;-25
2022/04/30 06:36:22;;;;;;;46.70;22.30;;;;;;;9.62;69.38;100211.13;103347;1303;23861;-29
2022/04/30 06:38:52;;;;;;;43.20;20.70;;;;;;;9.86;70.37;100206.45;103551;1302;22499;-29
2022/04/30 06:41:21;;;;;;;38.30;21.90;;;;;;;10.04;70.49;100204.13;103618;1303;24205;-29
2022/04/30 06:43:51;;;;;;;36.50;21.50;;;;;;;10.29;70.05;100206.31;103536;1303;22729;-29
2022/04/30 06:46:20;;;;;;;36.00;23.60;;;;;;;10.51;69.30;100204.70;103572;1303;25117;-25
2022/04/30 06:48:48;;;;;;;31.90;20.20;;;;;;;10.58;67.14;100205.45;103596;1303;23939;-28
2022/04/30 06:51:17;;;;;;;33.50;15.80;;;;;;;10.75;67.43;100202.40;103546;1303;24355;-25
2022/04/30 06:58:54;;;;;;;36.70;15.30;;;;;;;11.11;65.57;100202.48;103573;1303;23596;-26
2022/04/30 07:04:14;;;;;;;45.30;21.60;;;;;;;11.44;65.84;100203.11;103552;1302;22789;-28
2022/04/30 07:06:43;;;;;;;21.40;11.00;;;;;;;11.54;66.14;100202.85;103588;1302;25247;-29
2022/04/30 07:09:13;;;;;;;17.90;11.90;;;;;;;11.76;64.95;100202.33;103525;1303;23596;-27
2022/04/30 07:11:42;;;;;;;16.90;11.00;;;;;;;11.72;63.58;100200.48;103526;1303;22514;-28
2022/04/30 07:14:11;;;;;;;15.40;10.10;;;;;;;11.86;63.68;100200.92;103534;1303;23844;-30
2022/04/30 07:16:40;;;;;;;19.00;11.00;;;;;;;11.91;63.52;100198.89;103568;1303;24306;-28
2022/04/30 07:19:09;;;;;;;31.20;10.40;;;;;;;11.98;63.54;100197.19;103544;1303;22955;-30
2022/04/30 07:21:38;;;;;;;17.30;10.10;;;;;;;12.26;63.92;100197.77;103414;1303;24245;-30
2022/04/30 07:24:07;;;;;;;13.10;9.50;;;;;;;12.51;63.23;100202.59;103536;1303;22587;-25
2022/04/30 07:26:36;;;;;;;15.80;9.50;;;;;;;12.70;61.85;100203.14;103587;1303;24233;-25
2022/04/30 07:29:05;;;;;;;16.60;10.30;;;;;;;12.94;62.31;100202.77;103526;1303;24269;-24
2022/04/30 07:31:34;;;;;;;18.10;10.70;;;;;;;13.19;61.47;100201.77;103528;1303;24226;-31
2022/04/30 07:34:04;;;;;;;17.70;10.30;;;;;;;13.50;61.73;100200.88;103551;1303;24276;-30
2022/04/30 07:36:33;;;;;;;20.80;9.60;;;;;;;13.64;60.49;100204.33;103579;1303;22518;-26
2022/04/30 07:39:02;;;;;;;18.30;10.30;;;;;;;13.69;60.41;100202.73;103633;1303;24336;-25
2022/04/30 07:41:31;;;;;;;20.40;10.40;;;;;;;13.91;61.36;100199.59;103557;1303;23612;-24
2022/04/30 07:44:01;;;;;;;21.70;11.30;;;;;;;14.08;60.14;100197.27;103555;1303;22501;-25
2022/04/30 07:46:30;;;;;;;21.20;9.60;;;;;;;14.09;58.47;100197.98;103522;1303;24643;-25
2022/04/30 07:49:00;;;;;;;19.80;10.60;;;;;;;14.24;58.96;100199.77;103505;1303;22618;-25
2022/04/30 07:51:34;;;;;;;16.30;9.20;;;;;;;14.53;58.85;100203.19;103579;1303;24360;-25
2022/04/30 07:54:04;;;;;;;10.90;6.90;;;;;;;14.89;56.76;100206.05;103646;1303;24280;-29
2022/04/30 07:56:33;;;;;;;11.10;7.50;;;;;;;15.12;55.83;100203.66;103558;1303;23826;-29
2022/04/30 07:59:02;;;;;;;13.20;8.80;;;;;;;15.56;57.25;100203.68;103541;1303;23749;-28
2022/04/30 08:01:31;;;;;;;11.80;7.00;;;;;;;16.06;55.80;100198.83;103648;1303;24285;-25
2022/04/30 08:04:00;;;;;;;14.10;8.60;;;;;;;16.49;54.61;100199.66;103728;1303;23527;-29
2022/04/30 08:06:29;;;;;;;15.30;6.70;;;;;;;16.85;53.46;100199.17;103558;1303;22959;-25
2022/04/30 08:08:58;;;;;;;8.30;7.10;;;;;;;17.18;52.33;100200.33;103587;1303;24214;-26
2022/04/30 08:11:27;;;;;;;25.60;5.30;;;;;;;17.63;50.90;100201.64;103534;1303;23760;-29
2022/04/30 08:13:56;;;;;;;6.20;3.90;;;;;;;17.90;49.47;100203.14;103539;1303;25049;-29
2022/04/30 08:16:25;;;;;;;10.60;4.70;;;;;;;17.97;45.27;100207.02;103544;1303;24237;-29
2022/04/30 08:18:55;;;;;;;9.40;4.80;;;;;;;18.23;45.96;100205.14;103584;1303;23860;-25
2022/04/30 08:21:24;;;;;;;6.80;4.10;;;;;;;18.20;44.92;100212.32;103593;1303;24266;-29
2022/04/30 08:23:53;;;;;;;7.10;4.50;;;;;;;18.46;45.17;100206.45;103545;1303;22524;-25
2022/04/30 08:26:22;;;;;;;10.30;4.70;;;;;;;18.45;42.41;100209.89;103561;1303;24215;-25
2022/04/30 08:28:51;;;;;;;5.10;4.20;;;;;;;18.29;42.43;100209.16;103586;1302;24220;-25
2022/04/30 08:31:20;;;;;;;12.00;4.50;;;;;;;18.66;43.28;100207.66;103574;1302;23587;-30
2022/04/30 08:33:49;;;;;;;5.20;3.50;;;;;;;19.09;41.89;100203.05;103547;1303;23977;-28
2022/04/30 08:36:18;;;;;;;6.50;2.90;;;;;;;19.51;41.05;100200.56;103590;1303;24255;-28
2022/04/30 08:38:47;;;;;;;6.50;3.40;;;;;;;19.75;39.59;100197.78;103566;1303;25089;-25
2022/04/30 08:41:16;;;;;;;6.90;3.80;;;;;;;20.08;35.77;100193.70;103562;1303;23615;-28
2022/04/30 08:43:46;;;;;;;5.00;3.20;;;;;;;20.00;34.92;100195.36;103594;1302;25374;-28
2022/04/30 08:46:19;;;;;;;4.80;3.10;;;;;;;20.12;34.81;100193.33;103500;1303;23587;-26
2022/04/30 08:48:48;;;;;;;4.40;2.80;;;;;;;20.34;34.60;100190.57;103533;1303;23500;-29
2022/04/30 08:51:18;;;;;;;4.10;3.00;;;;;;;20.36;32.63;100185.04;103529;1303;23929;-25
2022/04/30 08:53:47;;;;;;;3.20;2.10;;;;;;;20.62;32.52;100186.27;103512;1303;22690;-29
2022/04/30 08:56:16;;;;;;;4.70;2.50;;;;;;;20.70;32.15;100180.55;103516;1303;23849;-29
2022/04/30 08:58:45;;;;;;;5.60;2.90;;;;;;;20.61;31.52;100181.09;103585;1302;23640;-26
2022/04/30 09:01:14;;;;;;;2.10;1.40;;;;;;;20.60;31.26;100177.34;103547;1303;25223;-29
2022/04/30 09:03:45;;;;;;;4.80;2.00;;;;;;;20.38;30.33;100172.02;103515;1303;24361;-26
2022/04/30 09:06:17;;;;;;;3.20;1.60;;;;;;;20.06;30.63;100170.27;103534;1303;23600;-28
2022/04/30 09:08:49;;;;;;;2.20;1.40;;;;;;;19.92;30.75;100170.25;103578;1303;23432;-25
2022/04/30 09:11:26;;;;;;;4.30;2.10;;;;;;;19.72;30.68;100165.05;103515;1303;23695;-25
2022/04/30 09:13:56;;;;;;;6.70;2.20;;;;;;;19.74;30.62;100160.33;103612;1303;23061;-28
2022/04/30 09:16:25;;;;;;;4.70;2.80;;;;;;;19.64;30.76;100160.83;103604;1303;26127;-29
2022/04/30 09:19:01;;;;;;;4.30;2.50;;;;;;;19.90;31.47;100156.89;103600;1303;24211;-25
2022/04/30 09:21:30;;;;;;;5.10;2.50;;;;;;;20.24;30.66;100155.66;103608;1301;24970;-25
2022/04/30 09:24:03;;;;;;;5.80;2.60;;;;;;;19.93;30.35;100153.54;103529;1303;25130;-29
2022/04/30 09:26:38;;;;;;;12.40;2.40;;;;;;;19.90;30.69;100150.64;103612;1303;22626;-25
2022/04/30 09:29:20;;;;;;;3.50;2.20;;;;;;;19.94;30.88;100149.26;103329;1303;24243;-29
2022/04/30 09:31:51;;;;;;;4.30;2.30;;;;;;;19.45;30.73;100153.30;103621;1303;24968;-25
2022/04/30 09:39:25;;;;;;;8.00;3.40;;;;;;;19.53;30.97;100151.95;103559;1303;24977;-29
2022/04/30 09:42:00;;;;;;;6.90;2.20;;;;;;;19.34;31.46;100154.71;103618;1303;22517;-25
2022/04/30 09:44:29;;;;;;;28.10;6.60;;;;;;;19.34;30.26;100155.05;103540;1303;24227;-28
2022/04/30 09:46:58;;;;;;;3.40;2.10;;;;;;;19.48;30.12;100152.17;103559;1303;22513;-25
2022/04/30 09:54:32;;;;;;;7.90;1.40;;;;;;;18.85;29.72;100151.35;103588;1303;22515;-29
2022/04/30 09:57:01;;;;;;;7.90;3.30;;;;;;;18.80;30.08;100141.83;103571;1303;22629;-29
2022/04/30 09:59:30;;;;;;;4.80;1.60;;;;;;;18.23;31.31;100144.23;103612;1303;23602;-27
2022/04/30 10:01:59;;;;;;;4.00;1.40;;;;;;;18.60;30.32;100145.20;103569;1303;22499;-28
2022/04/30 10:04:28;;;;;;;2.80;1.60;;;;;;;18.32;29.62;100142.55;103568;1303;24312;-25
2022/04/30 10:06:59;;;;;;;5.30;1.30;;;;;;;18.34;30.23;100139.98;103634;1303;24201;-30
2022/04/30 10:09:32;;;;;;;3.40;1.50;;;;;;;18.49;30.84;100135.68;103610;1303;25347;-25
2022/04/30 10:12:09;;;;;;;2.30;1.20;;;;;;;18.91;29.16;100131.54;103611;1303;26298;-28
2022/04/30 10:14:44;;;;;;;3.20;1.50;;;;;;;18.75;29.32;100128.59;103555;1303;22752;-24
2022/04/30 10:17:13;;;;;;;1.70;1.00;;;;;;;18.75;29.42;100125.33;103535;1303;23655;-30
2022/04/30 10:19:45;;;;;;;4.80;1.70;;;;;;;18.35;30.21;100128.98;103597;1303;22562;-30
2022/04/30 10:22:15;;;;;;;12.30;2.60;;;;;;;18.81;29.24;100127.80;103572;1303;22828;-27
2022/04/30 10:24:46;;;;;;;5.50;2.90;;;;;;;18.65;28.71;100121.36;103556;1303;25315;-27
2022/04/30 10:27:16;;;;;;;3.10;1.90;;;;;;;18.42;29.58;100124.40;103505;1303;25309;-30
2022/04/30 10:29:50;;;;;;;5.70;1.50;;;;;;;18.62;29.39;100121.06;103552;1303;24339;-24
2022/04/30 10:32:23;;;;;;;3.50;1.50;;;;;;;18.70;28.51;100121.29;103620;1302;23842;-24
2022/04/30 10:34:53;;;;;;;8.30;0.90;;;;;;;18.50;27.73;100121.41;103558;1303;23586;-28
2022/04/30 10:37:26;;;;;;;5.10;2.20;;;;;;;18.80;27.81;100119.45;103584;1303;22639;-25
2022/04/30 10:39:57;;;;;;;2.80;1.70;;;;;;;19.56;27.00;100110.32;103562;1302;22502;-28
2022/04/30 10:42:29;;;;;;;6.90;2.50;;;;;;;19.63;26.21;100113.80;103592;1303;25322;-29
2022/04/30 10:44:58;;;;;;;5.30;2.90;;;;;;;19.35;27.29;100110.88;103530;1303;23871;-29
2022/04/30 10:47:27;;;;;;;9.70;1.80;;;;;;;19.58;27.20;100111.22;103515;1303;24997;-28
2022/04/30 10:49:57;;;;;;;2.90;1.90;;;;;;;19.37;28.27;100107.60;103622;1303;23603;-28
2022/04/30 10:52:26;;;;;;;3.30;1.70;;;;;;;19.21;28.91;100113.87;103533;1303;22773;-25
2022/04/30 10:54:56;;;;;;;5.60;1.50;;;;;;;-98.49;5.00;20022.01;100597;1303;1003121;-25
2022/04/30 10:57:25;;;;;;;3.40;1.40;;;;;;;-128.00;-1.00;-1.00;99990;1303;1004700;-25
2022/04/30 10:59:57;;;;;;;4.90;2.10;;;;;;;-128.00;-1.00;-1.00;99910;1303;1005081;-28
2022/04/30 11:02:30;;;;;;;11.10;2.40;;;;;;;-128.00;-1.00;-1.00;99951;1303;1004762;-28
2022/04/30 11:05:00;;;;;;;5.70;2.40;;;;;;;-128.00;-1.00;-1.00;100006;1303;1004507;-28
2022/04/30 11:07:30;;;;;;;4.10;1.90;;;;;;;-128.00;-1.00;-1.00;100008;1303;1004818;-29
2022/04/30 11:09:59;;;;;;;6.50;1.80;;;;;;;-128.00;-1.00;-1.00;100017;1303;1004124;-25
2022/04/30 11:12:30;;;;;;;9.50;2.30;;;;;;;-128.00;-1.00;-1.00;100013;1303;1005015;-28
2022/04/30 11:14:59;;;;;;;4.50;2.20;;;;;;;-128.00;-1.00;-1.00;99955;1303;1003706;-24
2022/04/30 11:17:28;;;;;;;13.10;1.80;;;;;;;-128.00;-1.00;-1.00;100024;1303;1004379;-28
2022/04/30 11:19:57;;;;;;;4.50;2.00;;;;;;;-128.00;-1.00;-1.00;100023;1303;1005127;-28
2022/04/30 11:22:26;;;;;;;4.00;1.80;;;;;;;-128.00;-1.00;-1.00;100008;1303;1004049;-28
2022/04/30 11:24:56;;;;;;;4.70;1.70;;;;;;;-128.00;-1.00;-1.00;99982;1303;1004985;-28
2022/04/30 11:27:29;;;;;;;3.80;2.70;;;;;;;-128.00;-1.00;-1.00;99957;1303;1004614;-24
2022/04/30 11:29:58;;;;;;;3.90;1.70;;;;;;;-128.00;-1.00;-1.00;100039;1303;1005386;-28
2022/04/30 11:32:27;;;;;;;1.50;0.80;;;;;;;-128.00;-1.00;-1.00;100063;1303;1005301;-28
2022/04/30 11:35:00;;;;;;;3.30;1.90;;;;;;;-128.00;-1.00;-1.00;100008;1303;1005330;-24
2022/04/30 11:37:33;;;;;;;;;;;;;;;-128.00;-1.00;-1.00;99969;1303;1005161;-24
2022/04/30 11:40:03;;;;;;;4.00;1.60;;;;;;;-105.17;45.40;78853.84;101096;1303;1004922;-28
2022/04/30 11:42:32;;;;;;;3.70;1.60;;;;;;;-46.14;57.17;97846.33;102726;1303;332503;-28
2022/04/30 11:45:02;;;;;;;3.00;1.50;;;;;;;-99.46;85.58;115041.55;102460;1303;657740;-29
2022/04/30 11:47:31;;;;;;;1.70;1.30;;;;;;;-138.02;45.40;71263.77;100765;1303;1002499;-28
2022/04/30 11:50:04;;;;;;;3.30;1.90;;;;;;;-128.00;-1.00;-1.00;100040;1303;1005132;-29
2022/04/30 11:52:33;;;;;;;;;;;;;;;-128.00;-1.00;-1.00;99948;1303;1004798;-25
2022/04/30 11:55:04;;;;;;;2.50;1.20;;;;;;;-128.00;-1.00;-1.00;100021;1303;1004596;-29
2022/04/30 11:57:34;;;;;;;5.50;1.90;;;;;;;-128.00;-1.00;-1.00;99865;1303;1004731;-29
2022/04/30 12:00:03;;;;;;;5.40;2.10;;;;;;;-128.00;-1.00;-1.00;100044;1303;1003872;-29
2022/04/30 12:02:33;;;;;;;3.00;1.60;;;;;;;-128.00;-1.00;-1.00;100045;1303;1005126;-29
2022/04/30 12:05:03;;;;;;;2.60;1.80;;;;;;;-128.00;-1.00;-1.00;100002;1303;1004466;-25